logo tempoitalia

Diretta Meteo Port Elizabeth, Sud Africavenerdì 19 luglio ore 06:00

Mappa
Sereno 8 °C Sereno 24 Ore: T.min 8 T.max 19
Ponente Nord Km/h 3.7 Punto di rugiada: 6 °C Umidità: 87% Visibilità: 10 Km
Il sole sorge alle: 07:17 Il sole tramonta alle: 17:30
19 Luglio 2024 06:00 tempo osservato: Sereno Sereno 8 87 1019 vento: Nord N 3.7
19 Luglio 2024 05:00 tempo osservato: Sereno Sereno 11 81 1019 vento: Nord NO 13
19 Luglio 2024 04:43 tempo osservato: Sereno Sereno 11 76 1019 vento: Nord NO 13
19 Luglio 2024 04:00 tempo osservato: Sereno Sereno 10 76 1019 vento: Nord O/NO 9.3
19 Luglio 2024 03:00 tempo osservato: Sereno Sereno 10 81 1019 vento: Nord O 9.3
19 Luglio 2024 02:00 tempo osservato: Sereno Sereno 12 76 1019 vento: Nord O 13
19 Luglio 2024 01:00 tempo osservato: Sereno Sereno 13 81 1019 vento: Nord O 16.7
19 Luglio 2024 00:00 tempo osservato: Sereno Sereno 13 87 1019 vento: Nord O/SO 22.2
18 Luglio 2024 23:00 tempo osservato: Sereno Sereno 14 82 1019 vento: Nord O/SO 22.2
18 Luglio 2024 22:00 tempo osservato: Sereno Sereno 15 76 1019 vento: Nord SO 20.3
18 Luglio 2024 21:00 tempo osservato: Sereno Sereno 15 72 1018 vento: Nord O/SO 24
18 Luglio 2024 20:00 tempo osservato: Sereno Sereno 15 72 1018 vento: Nord O/SO 16.7
18 Luglio 2024 19:00 tempo osservato: Sereno Sereno 16 67 1017 vento: Nord SO 22.2
18 Luglio 2024 18:00 tempo osservato: Sereno Sereno 16 67 1016 vento: Nord SO 24
18 Luglio 2024 17:00 tempo osservato: Sereno Sereno 16 67 1016 vento: Nord O/SO 22.2
18 Luglio 2024 16:00 tempo osservato: Sereno Sereno 17 63 1015 vento: Nord O/SO 24
18 Luglio 2024 15:00 tempo osservato: Sereno Sereno 18 51 1015 vento: Nord O/SO 25.9
18 Luglio 2024 14:07 tempo osservato: Sereno Sereno 19 55 1014 vento: Nord O/SO 33.3
18 Luglio 2024 14:01 tempo osservato: Sereno Sereno 19 55 1014 vento: Nord O/SO 33.3
18 Luglio 2024 14:00 tempo osservato: Sereno Sereno 19 55 1014 vento: Nord O/SO 29.6
18 Luglio 2024 13:00 tempo osservato: Sereno Sereno 19 45 1014 vento: Nord O/SO 35.2
18 Luglio 2024 12:00 tempo osservato: Sereno Sereno 19 52 1015 vento: Nord O/SO 25.9
18 Luglio 2024 11:00 tempo osservato: Sereno Sereno 18 59 1015 vento: Nord N 0
18 Luglio 2024 10:48 tempo osservato: Sereno Sereno 18 59 1015 vento: Nord N 1.8
18 Luglio 2024 10:00 tempo osservato: Sereno Sereno 16 72 1014 vento: Nord O 16.7
18 Luglio 2024 09:00 tempo osservato: Sereno Sereno 15 82 1014 vento: Nord O 13
18 Luglio 2024 08:13 tempo osservato: Sereno Sereno 14 82 1013 vento: Nord O 7.4
18 Luglio 2024 08:00 tempo osservato: Sereno Sereno 12 93 1013 vento: Nord O/SO 16.7
18 Luglio 2024 07:42 tempo osservato: Sereno Sereno 12 93 1013 vento: Nord O/SO 14.8
18 Luglio 2024 07:00 tempo osservato: Sereno Sereno 9 100 1012 vento: Nord O 7.4